Athens, Ohio
Current Conditions -  °F | °C
As of 11:55 AM on Saturday 25 Oct 2014 (Local Time) from KUNI Reporting Station
Overcast Overcast  
Wind Chill: 60°   Ceiling: 7000
Heat Index: 60°   Visibility: 10mi
Dew Point: 47°   Wind: 8mph
Humidity: 62%   Direction: 220°SW
Pressure: 29.99"   Gusts: NA
Location:  39.33°N, 82.1°W
Report Text: KUNI 251555Z AUTO 22007KT 10SM OVC070 16/09 A2999 RMK AO2 T01570085
Loading
Personal Weather Stations






























Interactive Weather Map
Tropical Storm Tracking
New forecast layout! Learn more

10-Day Weather Forecast

Advertisements
Track Severe Weather on mobile